createdAt,value
2017-07-05T00:01:26.674Z,3.60
2017-07-05T00:03:55.976Z,3.30
2017-07-05T00:06:25.255Z,3.20
2017-07-05T00:08:54.775Z,2.43
2017-07-05T00:11:24.121Z,4.60
2017-07-05T00:13:54.262Z,3.77
2017-07-05T00:16:23.954Z,5.03
2017-07-05T00:18:54.326Z,2.97
2017-07-05T00:21:23.770Z,4.00
2017-07-05T00:23:52.433Z,2.23
2017-07-05T00:26:22.102Z,4.87
2017-07-05T00:28:50.801Z,3.00
2017-07-05T00:31:19.496Z,5.33
2017-07-05T00:33:48.997Z,3.00
2017-07-05T00:36:18.552Z,4.60
2017-07-05T00:38:48.196Z,2.60
2017-07-05T00:41:17.530Z,2.53
2017-07-05T00:43:46.953Z,3.53
2017-07-05T00:46:16.334Z,2.97
2017-07-05T00:48:45.056Z,2.87
2017-07-05T00:51:13.724Z,3.27
2017-07-05T00:53:43.103Z,4.70
2017-07-05T00:56:12.735Z,2.97
2017-07-05T00:58:41.855Z,4.97
2017-07-05T01:01:10.970Z,2.50
2017-07-05T01:03:40.580Z,2.50
2017-07-05T01:06:10.265Z,4.67
2017-07-05T01:08:38.946Z,6.33
2017-07-05T01:11:07.758Z,5.63
2017-07-05T01:13:36.491Z,4.47
2017-07-05T01:16:05.172Z,3.13
2017-07-05T01:18:34.389Z,4.50
2017-07-05T01:21:09.518Z,17.10
2017-07-05T01:23:38.962Z,19.17
2017-07-05T01:26:08.495Z,72.17
2017-07-05T01:28:46.051Z,5.90
2017-07-05T01:31:15.216Z,3.40
2017-07-05T01:33:44.493Z,3.13
2017-07-05T01:36:13.982Z,5.73
2017-07-05T01:38:43.211Z,3.77
2017-07-05T01:41:12.616Z,3.47
2017-07-05T01:43:42.275Z,5.60
2017-07-05T01:46:11.844Z,8.03
2017-07-05T01:48:41.580Z,4.00
2017-07-05T01:51:11.100Z,4.47
2017-07-05T01:53:40.687Z,4.20
2017-07-05T01:56:09.973Z,3.60
2017-07-05T01:58:39.465Z,9.07
2017-07-05T02:01:08.761Z,3.73
2017-07-05T02:03:38.287Z,4.27
2017-07-05T02:06:07.811Z,6.03
2017-07-05T02:08:37.107Z,6.00
2017-07-05T02:11:06.636Z,2.77
2017-07-05T02:13:36.314Z,4.47
2017-07-05T02:16:05.914Z,3.27
2017-07-05T02:18:35.523Z,3.67
2017-07-05T02:21:05.071Z,5.10
2017-07-05T02:23:34.692Z,3.70
2017-07-05T02:26:04.055Z,3.67
2017-07-05T02:28:33.519Z,5.43
2017-07-05T02:31:03.844Z,3.73
2017-07-05T02:33:32.569Z,4.10
2017-07-05T02:36:01.315Z,3.30
2017-07-05T02:38:30.876Z,3.60
2017-07-05T02:41:00.365Z,3.97
2017-07-05T02:43:29.745Z,4.30
2017-07-05T02:45:59.338Z,4.50
2017-07-05T02:48:28.537Z,3.47
2017-07-05T02:50:57.807Z,3.63
2017-07-05T02:53:27.224Z,4.30
2017-07-05T02:55:56.596Z,4.90
2017-07-05T02:58:26.259Z,4.53
2017-07-05T03:00:55.510Z,5.03
2017-07-05T03:03:25.067Z,4.03
2017-07-05T03:05:54.127Z,4.40
2017-07-05T03:08:23.651Z,4.87
2017-07-05T03:10:53.191Z,7.20
2017-07-05T03:13:22.315Z,4.60
2017-07-05T03:15:51.720Z,7.90
2017-07-05T03:18:21.700Z,5.70
2017-07-05T03:20:50.962Z,5.10
2017-07-05T03:23:20.314Z,5.83
2017-07-05T03:25:49.713Z,5.63
2017-07-05T03:28:19.588Z,4.87
2017-07-05T03:30:49.159Z,4.53
2017-07-05T03:33:19.817Z,5.53
2017-07-05T03:35:49.201Z,4.97
2017-07-05T03:38:18.672Z,5.87
2017-07-05T03:40:47.806Z,5.87
2017-07-05T03:43:17.356Z,4.40
2017-07-05T03:45:46.739Z,7.83
2017-07-05T03:48:16.447Z,6.47
2017-07-05T03:50:45.978Z,7.67
2017-07-05T03:53:15.640Z,6.57
2017-07-05T03:55:45.143Z,6.63
2017-07-05T03:58:14.491Z,10.90
2017-07-05T04:00:44.112Z,8.10
2017-07-05T04:03:13.459Z,25.00
2017-07-05T04:05:43.013Z,19.30
2017-07-05T04:08:12.357Z,8.50
2017-07-05T04:10:41.881Z,10.00
2017-07-05T04:13:11.438Z,9.87
2017-07-05T04:15:40.690Z,8.70
2017-07-05T04:18:10.150Z,13.67
2017-07-05T04:20:40.548Z,8.50
2017-07-05T04:23:09.282Z,13.47
2017-07-05T04:25:38.752Z,12.57
2017-07-05T04:28:07.534Z,23.43
2017-07-05T04:30:36.375Z,16.60
2017-07-05T04:33:05.125Z,22.10
2017-07-05T04:35:34.730Z,25.93
2017-07-05T04:38:03.500Z,136.87
2017-07-05T04:40:32.220Z,40.13
2017-07-05T04:43:00.871Z,39.90
2017-07-05T04:45:29.552Z,48.10
2017-07-05T04:47:58.378Z,41.60
2017-07-05T04:50:27.059Z,46.70
2017-07-05T04:52:56.530Z,40.67
2017-07-05T04:55:34.023Z,41.77
2017-07-05T04:58:02.761Z,39.63
2017-07-05T05:00:31.428Z,36.53
2017-07-05T05:03:00.293Z,133.33
2017-07-05T05:05:28.910Z,89.57
2017-07-05T05:07:58.276Z,79.50
2017-07-05T05:10:27.583Z,94.07
2017-07-05T05:12:56.933Z,84.50
2017-07-05T05:15:26.190Z,45.10
2017-07-05T05:17:55.891Z,36.90
2017-07-05T05:20:25.853Z,28.17
2017-07-05T05:22:54.496Z,30.53
2017-07-05T05:25:23.308Z,25.67
2017-07-05T05:27:52.562Z,22.77
2017-07-05T05:30:22.020Z,20.23
2017-07-05T05:32:51.459Z,17.60
2017-07-05T05:35:20.778Z,16.20
2017-07-05T05:37:51.153Z,14.50
2017-07-05T05:40:19.848Z,12.83
2017-07-05T05:42:48.497Z,19.80
2017-07-05T05:45:18.056Z,16.20
2017-07-05T05:47:46.786Z,13.83
2017-07-05T05:50:16.453Z,14.00
2017-07-05T05:52:46.000Z,14.00
2017-07-05T05:55:15.329Z,15.40
2017-07-05T05:57:44.902Z,16.47
2017-07-05T06:00:14.620Z,17.43
2017-07-05T06:02:43.342Z,13.97
2017-07-05T06:05:12.011Z,11.50
2017-07-05T06:07:40.845Z,12.07
2017-07-05T06:10:10.163Z,11.10
2017-07-05T06:12:39.438Z,13.23
2017-07-05T06:15:08.860Z,13.40
2017-07-05T06:17:38.209Z,13.80
2017-07-05T06:20:07.495Z,15.43
2017-07-05T06:22:36.860Z,11.90
2017-07-05T06:25:06.410Z,16.67
2017-07-05T06:27:35.684Z,12.57
2017-07-05T06:30:05.841Z,14.37
2017-07-05T06:32:35.523Z,13.60
2017-07-05T06:35:05.867Z,15.67
2017-07-05T06:37:35.533Z,10.47
2017-07-05T06:40:06.185Z,13.97
2017-07-05T06:42:36.545Z,14.83
2017-07-05T06:45:06.068Z,14.23
2017-07-05T06:47:35.408Z,12.13
2017-07-05T06:50:04.651Z,15.53
2017-07-05T06:52:34.217Z,12.80
2017-07-05T06:55:03.946Z,14.33
2017-07-05T06:57:33.094Z,16.10
2017-07-05T07:00:03.935Z,13.43
2017-07-05T07:02:35.229Z,13.07
2017-07-05T07:05:04.621Z,15.03
2017-07-05T07:07:34.030Z,17.47
2017-07-05T07:10:03.913Z,13.60
2017-07-05T07:12:34.315Z,16.37
2017-07-05T07:15:03.695Z,18.63
2017-07-05T07:17:33.386Z,18.03
2017-07-05T07:20:02.782Z,14.73
2017-07-05T07:22:32.300Z,16.83
2017-07-05T07:25:01.782Z,13.83
2017-07-05T07:27:31.092Z,16.10
2017-07-05T07:30:00.567Z,18.03
2017-07-05T07:32:29.977Z,13.43
2017-07-05T07:34:59.543Z,12.30
2017-07-05T07:37:28.862Z,16.63
2017-07-05T07:39:58.318Z,13.83
2017-07-05T07:42:28.957Z,11.87
2017-07-05T07:44:58.503Z,12.20
2017-07-05T07:47:27.892Z,13.17
2017-07-05T07:49:57.474Z,15.60
2017-07-05T07:52:27.242Z,17.57
2017-07-05T07:54:56.750Z,14.97
2017-07-05T07:57:26.023Z,14.33
2017-07-05T07:59:55.775Z,15.20
2017-07-05T08:02:25.806Z,15.33
2017-07-05T08:04:55.156Z,14.63
2017-07-05T08:07:24.780Z,15.00
2017-07-05T08:09:54.269Z,14.80
2017-07-05T08:12:23.540Z,19.10
2017-07-05T08:14:52.946Z,18.87
2017-07-05T08:17:22.374Z,19.63
2017-07-05T08:19:51.670Z,15.40
2017-07-05T08:22:21.363Z,16.17
2017-07-05T08:24:50.787Z,15.43
2017-07-05T08:27:20.426Z,18.07
2017-07-05T08:29:49.974Z,20.33
2017-07-05T08:32:19.606Z,21.37
2017-07-05T08:34:48.818Z,22.10
2017-07-05T08:37:18.458Z,20.77
2017-07-05T08:39:47.905Z,21.47
2017-07-05T08:42:17.484Z,20.63
2017-07-05T08:44:47.984Z,18.80
2017-07-05T08:47:17.564Z,21.07
2017-07-05T08:49:46.879Z,19.67
2017-07-05T08:52:17.048Z,18.17
2017-07-05T08:54:46.137Z,22.20
2017-07-05T08:57:15.813Z,19.97
2017-07-05T08:59:45.319Z,18.53
2017-07-05T09:02:14.681Z,19.93
2017-07-05T09:04:43.941Z,18.20
2017-07-05T09:07:13.621Z,18.33
2017-07-05T09:09:42.992Z,20.20
2017-07-05T09:12:12.532Z,20.30
2017-07-05T09:14:42.085Z,15.80
2017-07-05T09:17:11.435Z,18.37
2017-07-05T09:19:40.926Z,19.87
2017-07-05T09:22:10.232Z,24.13
2017-07-05T09:24:39.798Z,21.03
2017-07-05T09:27:09.410Z,20.97
2017-07-05T09:29:38.747Z,20.57
2017-07-05T09:32:08.113Z,17.30
2017-07-05T09:34:37.597Z,19.13
2017-07-05T09:37:07.091Z,22.23
2017-07-05T09:39:36.549Z,18.17
2017-07-05T09:42:05.967Z,24.10
2017-07-05T09:44:35.416Z,18.93
2017-07-05T09:47:05.345Z,19.90
2017-07-05T09:49:35.009Z,18.17
2017-07-05T09:52:04.268Z,14.60
2017-07-05T09:54:33.878Z,14.63
2017-07-05T09:57:03.314Z,18.60
2017-07-05T09:59:32.724Z,16.77
2017-07-05T10:02:02.115Z,22.00
2017-07-05T10:04:31.711Z,15.40
2017-07-05T10:07:01.284Z,18.60
2017-07-05T10:09:30.925Z,15.43
2017-07-05T10:12:00.397Z,14.13
2017-07-05T10:14:30.665Z,15.90
2017-07-05T10:17:00.140Z,17.33
2017-07-05T10:19:29.648Z,15.43
2017-07-05T10:21:59.245Z,16.40
2017-07-05T10:24:29.145Z,18.53
2017-07-05T10:26:58.590Z,14.67
2017-07-05T10:29:27.984Z,16.03
2017-07-05T10:31:57.257Z,14.80
2017-07-05T10:34:27.608Z,16.67
2017-07-05T10:36:57.217Z,15.10
2017-07-05T10:39:26.840Z,18.93
2017-07-05T10:41:56.458Z,13.70
2017-07-05T10:44:25.831Z,16.30
2017-07-05T10:46:55.263Z,19.03
2017-07-05T10:49:25.948Z,15.03
2017-07-05T10:51:55.515Z,16.00
2017-07-05T10:54:24.920Z,17.53
2017-07-05T10:56:54.476Z,21.73
2017-07-05T10:59:23.802Z,23.00
2017-07-05T11:01:53.427Z,18.33
2017-07-05T11:04:22.906Z,18.63
2017-07-05T11:06:52.446Z,15.70
2017-07-05T11:09:21.487Z,13.10
2017-07-05T11:11:50.818Z,13.17
2017-07-05T11:14:20.217Z,13.63
2017-07-05T11:16:49.524Z,19.03
2017-07-05T11:19:18.993Z,19.93
2017-07-05T11:21:48.308Z,18.80
2017-07-05T11:24:17.945Z,19.33
2017-07-05T11:26:47.600Z,19.83
2017-07-05T11:29:17.159Z,12.57
2017-07-05T11:31:46.877Z,16.30
2017-07-05T11:34:16.505Z,23.13
2017-07-05T11:36:45.795Z,16.90
2017-07-05T11:39:15.442Z,17.80
2017-07-05T11:41:45.896Z,19.37
2017-07-05T11:44:15.322Z,18.37
2017-07-05T11:46:44.745Z,20.93
2017-07-05T11:49:14.445Z,19.30
2017-07-05T11:51:44.545Z,20.20
2017-07-05T11:54:14.209Z,16.43
2017-07-05T11:56:43.780Z,19.93
2017-07-05T11:59:13.334Z,16.63
2017-07-05T12:01:43.039Z,17.93
2017-07-05T12:04:12.379Z,22.63
2017-07-05T12:06:41.979Z,20.87
2017-07-05T12:09:11.565Z,17.27
2017-07-05T12:11:41.281Z,19.80
2017-07-05T12:14:10.652Z,16.80
2017-07-05T12:16:40.053Z,20.60
2017-07-05T12:19:09.627Z,21.10
2017-07-05T12:21:38.882Z,19.43
2017-07-05T12:24:08.564Z,21.03
2017-07-05T12:26:37.752Z,23.30
2017-07-05T12:29:07.386Z,26.77
2017-07-05T12:31:36.684Z,23.03
2017-07-05T12:34:12.874Z,17.90
2017-07-05T12:36:42.407Z,19.50
2017-07-05T12:39:11.934Z,17.87
2017-07-05T12:41:41.289Z,20.13
2017-07-05T12:44:10.931Z,18.07
2017-07-05T12:46:40.779Z,24.87
2017-07-05T12:49:10.237Z,18.53
2017-07-05T12:51:39.403Z,23.53
2017-07-05T12:54:16.149Z,23.00
2017-07-05T12:56:45.748Z,18.57
2017-07-05T12:59:15.229Z,22.07
2017-07-05T13:01:44.811Z,17.30
2017-07-05T13:04:14.303Z,23.63
2017-07-05T13:06:43.859Z,17.53
2017-07-05T13:09:13.284Z,21.77
2017-07-05T13:11:43.218Z,26.97
2017-07-05T13:14:13.422Z,19.80
2017-07-05T13:16:43.566Z,19.37
2017-07-05T13:19:13.394Z,21.17
2017-07-05T13:21:43.012Z,22.27
2017-07-05T13:24:12.861Z,20.53
2017-07-05T13:26:42.388Z,16.83
2017-07-05T13:29:12.776Z,27.03
2017-07-05T13:31:42.477Z,26.97
2017-07-05T13:34:11.836Z,22.57
2017-07-05T13:36:42.335Z,26.57
2017-07-05T13:39:11.724Z,17.23
2017-07-05T13:41:41.108Z,16.77
2017-07-05T13:44:10.788Z,20.80
2017-07-05T13:46:40.447Z,23.27
2017-07-05T13:49:09.958Z,19.30
2017-07-05T13:51:39.568Z,18.27
2017-07-05T13:54:09.973Z,19.40
2017-07-05T13:56:39.422Z,17.50
2017-07-05T13:59:09.081Z,18.70
2017-07-05T14:01:38.506Z,21.17
2017-07-05T14:04:07.967Z,23.00
2017-07-05T14:06:37.473Z,22.83
2017-07-05T14:09:07.075Z,19.13
2017-07-05T14:11:36.555Z,18.60
2017-07-05T14:14:06.875Z,18.20
2017-07-05T14:16:36.425Z,17.27
2017-07-05T14:19:05.699Z,17.00
2017-07-05T14:21:35.957Z,20.77
2017-07-05T14:24:05.495Z,17.43
2017-07-05T14:26:34.772Z,16.07
2017-07-05T14:29:04.395Z,18.43
2017-07-05T14:31:33.833Z,17.07
2017-07-05T14:34:03.450Z,15.87
2017-07-05T14:36:32.841Z,15.20
2017-07-05T14:39:02.170Z,17.70
2017-07-05T14:41:31.872Z,17.00
2017-07-05T14:44:02.445Z,15.10
2017-07-05T14:46:31.722Z,17.57
2017-07-05T14:49:00.941Z,12.63
2017-07-05T14:51:30.377Z,15.53
2017-07-05T14:53:59.768Z,18.67
2017-07-05T14:56:30.037Z,16.40
2017-07-05T14:58:59.589Z,13.30
2017-07-05T15:01:29.175Z,17.30
2017-07-05T15:03:59.059Z,16.40
2017-07-05T15:06:28.513Z,16.60
2017-07-05T15:08:57.974Z,14.73
2017-07-05T15:11:27.373Z,15.33
2017-07-05T15:13:56.924Z,15.07
2017-07-05T15:16:26.276Z,16.07
2017-07-05T15:18:55.993Z,19.20
2017-07-05T15:21:25.526Z,15.67
2017-07-05T15:23:54.852Z,16.23
2017-07-05T15:26:24.310Z,13.97
2017-07-05T15:28:53.991Z,12.60
2017-07-05T15:31:23.530Z,16.33
2017-07-05T15:33:53.235Z,13.80
2017-07-05T15:36:22.646Z,13.87
2017-07-05T15:38:51.867Z,12.73
2017-07-05T15:41:21.427Z,12.10
2017-07-05T15:43:50.947Z,11.97
2017-07-05T15:46:20.540Z,10.10
2017-07-05T15:48:49.811Z,13.00
2017-07-05T15:51:19.462Z,13.80
2017-07-05T15:53:49.098Z,13.10
2017-07-05T15:56:18.783Z,12.43
2017-07-05T15:58:49.291Z,12.70
2017-07-05T16:01:18.856Z,14.50
2017-07-05T16:03:48.451Z,15.40
2017-07-05T16:06:17.746Z,12.10
2017-07-05T16:08:47.145Z,15.50
2017-07-05T16:11:16.611Z,14.67
2017-07-05T16:13:45.849Z,12.57
2017-07-05T16:16:15.195Z,13.63
2017-07-05T16:18:44.552Z,13.23
2017-07-05T16:21:14.006Z,17.17
2017-07-05T16:23:44.370Z,13.03
2017-07-05T16:26:13.994Z,11.23
2017-07-05T16:28:43.217Z,11.00
2017-07-05T16:31:12.720Z,12.53
2017-07-05T16:33:42.229Z,11.63
2017-07-05T16:36:11.963Z,13.33
2017-07-05T16:38:42.017Z,13.70
2017-07-05T16:41:11.904Z,13.47
2017-07-05T16:43:41.377Z,12.40
2017-07-05T16:46:11.386Z,11.50
2017-07-05T16:48:41.059Z,13.63
2017-07-05T16:51:10.291Z,11.67
2017-07-05T16:53:39.902Z,13.03
2017-07-05T16:56:09.563Z,16.83
2017-07-05T16:58:39.048Z,20.57
2017-07-05T17:01:10.113Z,15.47
2017-07-05T17:03:39.827Z,14.70
2017-07-05T17:06:09.256Z,14.80
2017-07-05T17:08:39.276Z,15.63
2017-07-05T17:11:08.673Z,14.67
2017-07-05T17:13:38.047Z,17.93
2017-07-05T17:16:07.438Z,18.33
2017-07-05T17:18:37.345Z,15.23
2017-07-05T17:21:07.017Z,13.87
2017-07-05T17:23:36.272Z,10.80
2017-07-05T17:26:05.686Z,13.27
2017-07-05T17:28:35.520Z,9.63
2017-07-05T17:31:05.048Z,10.73
2017-07-05T17:33:34.517Z,8.23
2017-07-05T17:36:04.155Z,8.77
2017-07-05T17:38:33.212Z,10.93
2017-07-05T17:41:02.685Z,8.77
2017-07-05T17:43:32.974Z,8.90
2017-07-05T17:46:02.409Z,9.40
2017-07-05T17:48:31.977Z,8.53
2017-07-05T17:51:01.401Z,7.30
2017-07-05T17:53:30.910Z,10.90
2017-07-05T17:56:00.559Z,8.43
2017-07-05T17:58:30.168Z,10.23
2017-07-05T18:00:59.773Z,6.73
2017-07-05T18:03:30.670Z,6.00
2017-07-05T18:06:00.428Z,6.63
2017-07-05T18:08:30.165Z,6.67
2017-07-05T18:10:59.700Z,5.47
2017-07-05T18:13:29.301Z,5.47
2017-07-05T18:15:59.035Z,5.77
2017-07-05T18:18:29.237Z,5.93
2017-07-05T18:20:58.987Z,5.37
2017-07-05T18:23:28.361Z,5.80
2017-07-05T18:25:57.590Z,6.30
2017-07-05T18:28:26.865Z,7.03
2017-07-05T18:30:56.146Z,5.70
2017-07-05T18:33:25.308Z,6.40
2017-07-05T18:35:54.948Z,6.47
2017-07-05T18:38:24.416Z,9.40
2017-07-05T18:40:53.697Z,5.67
2017-07-05T18:43:23.085Z,8.90
2017-07-05T18:45:52.528Z,6.30
2017-07-05T18:48:21.482Z,6.00
2017-07-05T18:50:51.731Z,5.57
2017-07-05T18:53:21.626Z,6.53
2017-07-05T18:55:51.922Z,5.80
2017-07-05T18:58:21.126Z,7.37
2017-07-05T19:00:50.655Z,8.43
2017-07-05T19:03:20.380Z,6.30
2017-07-05T19:05:50.954Z,7.23
2017-07-05T19:08:20.497Z,8.10
2017-07-05T19:10:50.720Z,5.80
2017-07-05T19:13:21.011Z,6.53
2017-07-05T19:15:50.216Z,11.70
2017-07-05T19:18:19.761Z,6.90
2017-07-05T19:20:49.517Z,7.20
2017-07-05T19:23:19.049Z,6.23
2017-07-05T19:25:48.655Z,11.67
2017-07-05T19:28:18.373Z,6.90
2017-07-05T19:30:47.563Z,5.40
2017-07-05T19:33:17.335Z,6.30
2017-07-05T19:35:46.761Z,5.27
2017-07-05T19:38:16.327Z,6.93
2017-07-05T19:40:46.412Z,9.80
2017-07-05T19:43:20.848Z,6.73
2017-07-05T19:45:50.851Z,6.23
2017-07-05T19:48:20.335Z,5.57
2017-07-05T19:50:49.643Z,7.80
2017-07-05T19:53:19.218Z,9.00
2017-07-05T19:55:48.498Z,6.30
2017-07-05T19:58:17.975Z,5.47
2017-07-05T20:00:47.540Z,5.87
2017-07-05T20:03:17.082Z,6.47
2017-07-05T20:05:46.477Z,6.10
2017-07-05T20:08:17.150Z,7.20
2017-07-05T20:10:46.689Z,6.77
2017-07-05T20:13:15.927Z,6.57
2017-07-05T20:15:45.212Z,5.77
2017-07-05T20:18:14.490Z,4.87
2017-07-05T20:20:44.021Z,6.53
2017-07-05T20:23:13.518Z,5.73
2017-07-05T20:25:42.798Z,8.57
2017-07-05T20:28:12.284Z,6.93
2017-07-05T20:30:42.001Z,4.47
2017-07-05T20:33:11.575Z,5.53
2017-07-05T20:35:41.184Z,8.33
2017-07-05T20:38:10.596Z,3.77
2017-07-05T20:40:39.903Z,9.10
2017-07-05T20:43:09.572Z,4.23
2017-07-05T20:45:39.126Z,4.53
2017-07-05T20:48:08.834Z,4.00
2017-07-05T20:50:37.714Z,6.53
2017-07-05T20:53:07.081Z,4.20
2017-07-05T20:55:36.463Z,6.80
2017-07-05T20:58:06.032Z,3.80
2017-07-05T21:00:35.582Z,4.33
2017-07-05T21:03:05.032Z,4.47
2017-07-05T21:05:34.365Z,6.73
2017-07-05T21:08:04.052Z,7.23
2017-07-05T21:10:34.510Z,3.93
2017-07-05T21:13:04.093Z,4.00
2017-07-05T21:15:33.475Z,3.90
2017-07-05T21:18:02.650Z,3.60
2017-07-05T21:20:32.262Z,3.60
2017-07-05T21:23:01.961Z,4.37
2017-07-05T21:25:31.481Z,4.20
2017-07-05T21:28:00.940Z,4.87
2017-07-05T21:30:30.226Z,5.20
2017-07-05T21:32:59.752Z,5.53
2017-07-05T21:35:29.443Z,6.40
2017-07-05T21:37:58.944Z,4.57
2017-07-05T21:40:28.335Z,4.90
2017-07-05T21:42:58.345Z,5.93
2017-07-05T21:45:27.702Z,5.73
2017-07-05T21:47:57.085Z,7.13
2017-07-05T21:50:26.721Z,4.40
2017-07-05T21:52:56.517Z,4.27
2017-07-05T21:55:25.831Z,5.60
2017-07-05T21:57:55.339Z,4.93
2017-07-05T22:00:24.736Z,4.57
2017-07-05T22:02:54.205Z,3.80
2017-07-05T22:05:23.889Z,3.73
2017-07-05T22:07:53.973Z,4.13
2017-07-05T22:10:23.293Z,3.90
2017-07-05T22:12:53.928Z,4.93
2017-07-05T22:15:24.614Z,4.10
2017-07-05T22:17:54.104Z,4.43
2017-07-05T22:20:23.489Z,5.00
2017-07-05T22:22:52.871Z,4.23
2017-07-05T22:25:22.193Z,5.27
2017-07-05T22:27:51.993Z,7.80
2017-07-05T22:30:21.863Z,7.30
2017-07-05T22:32:53.120Z,5.90
2017-07-05T22:35:22.929Z,5.63
2017-07-05T22:37:52.405Z,4.60
2017-07-05T22:40:21.834Z,6.10
2017-07-05T22:42:51.377Z,5.90
2017-07-05T22:45:21.339Z,5.47
2017-07-05T22:47:53.835Z,7.13
2017-07-05T22:50:23.611Z,5.87
2017-07-05T22:52:53.005Z,5.17
2017-07-05T22:55:22.454Z,5.40
2017-07-05T22:57:51.950Z,5.60
2017-07-05T23:00:21.501Z,5.20
2017-07-05T23:02:50.994Z,6.93
2017-07-05T23:05:20.984Z,8.30
2017-07-05T23:07:50.451Z,5.50
2017-07-05T23:10:19.864Z,6.93
2017-07-05T23:12:49.081Z,6.63
2017-07-05T23:15:19.562Z,4.77
2017-07-05T23:17:48.869Z,4.57
2017-07-05T23:20:18.141Z,10.37
2017-07-05T23:22:47.762Z,5.47
2017-07-05T23:25:17.440Z,5.40
2017-07-05T23:27:46.964Z,7.13
2017-07-05T23:30:16.659Z,5.00
2017-07-05T23:32:46.334Z,5.87
2017-07-05T23:35:15.718Z,8.60
2017-07-05T23:37:45.160Z,5.10
2017-07-05T23:40:14.825Z,6.20
2017-07-05T23:42:44.027Z,8.10
2017-07-05T23:45:13.712Z,7.90
2017-07-05T23:47:42.922Z,7.50
2017-07-05T23:50:12.240Z,8.20
2017-07-05T23:52:41.805Z,5.13
2017-07-05T23:55:11.468Z,5.67
2017-07-05T23:57:40.773Z,8.43
